createdAt,value
2023-02-06T00:01:22.926Z,13.20
2023-02-06T00:03:49.457Z,11.60
2023-02-06T00:06:16.014Z,15.98
2023-02-06T00:08:42.622Z,11.40
2023-02-06T00:11:10.812Z,9.27
2023-02-06T00:13:37.455Z,12.95
2023-02-06T00:16:04.512Z,12.13
2023-02-06T00:18:31.360Z,14.70
2023-02-06T00:20:57.851Z,11.20
2023-02-06T00:23:24.297Z,11.85
2023-02-06T00:25:50.784Z,12.77
2023-02-06T00:28:17.428Z,15.63
2023-02-06T00:30:46.418Z,14.38
2023-02-06T00:33:12.907Z,15.90
2023-02-06T00:35:39.391Z,14.55
2023-02-06T00:38:06.726Z,14.68
2023-02-06T00:40:33.232Z,19.02
2023-02-06T00:42:59.767Z,19.90
2023-02-06T00:45:26.265Z,12.65
2023-02-06T00:47:52.762Z,14.13
2023-02-06T00:50:19.275Z,12.65
2023-02-06T00:52:45.979Z,14.38
2023-02-06T00:55:12.472Z,18.48
2023-02-06T00:57:38.973Z,14.20
2023-02-06T01:00:06.602Z,18.90
2023-02-06T01:02:33.182Z,16.88
2023-02-06T01:04:59.910Z,15.68
2023-02-06T01:07:26.450Z,16.67
2023-02-06T01:09:52.982Z,17.00
2023-02-06T01:12:19.781Z,12.05
2023-02-06T01:14:46.273Z,13.70
2023-02-06T01:17:12.753Z,14.68
2023-02-06T01:19:39.468Z,11.77
2023-02-06T01:22:06.169Z,13.63
2023-02-06T01:24:32.981Z,15.60
2023-02-06T01:26:59.524Z,15.23
2023-02-06T01:29:26.048Z,15.40
2023-02-06T01:31:52.525Z,13.85
2023-02-06T01:34:19.018Z,17.33
2023-02-06T01:36:45.473Z,17.25
2023-02-06T01:39:11.956Z,17.95
2023-02-06T01:41:38.983Z,13.38
2023-02-06T01:44:22.792Z,16.05
2023-02-06T01:46:54.778Z,17.98
2023-02-06T01:49:28.993Z,18.35
2023-02-06T01:52:20.360Z,14.85
2023-02-06T01:54:54.833Z,15.65
2023-02-06T01:57:21.414Z,15.88
2023-02-06T01:59:50.462Z,12.60
2023-02-06T02:02:16.886Z,17.48
2023-02-06T02:04:43.514Z,14.73
2023-02-06T02:07:24.341Z,10.63
2023-02-06T02:09:50.824Z,14.52
2023-02-06T02:12:17.233Z,15.13
2023-02-06T02:14:43.968Z,16.08
2023-02-06T02:17:40.031Z,14.73
2023-02-06T02:20:35.235Z,13.50
2023-02-06T02:23:07.671Z,11.93
2023-02-06T02:26:12.991Z,14.55
2023-02-06T02:29:06.900Z,16.98
2023-02-06T02:32:02.394Z,18.02
2023-02-06T02:35:06.144Z,16.58
2023-02-06T02:38:05.813Z,16.85
2023-02-06T02:40:52.067Z,18.35
2023-02-06T02:43:42.417Z,12.63
2023-02-06T02:46:24.056Z,13.30
2023-02-06T02:48:52.067Z,22.33
2023-02-06T02:51:18.556Z,14.88
2023-02-06T02:53:45.233Z,15.80
2023-02-06T02:56:18.950Z,24.23
2023-02-06T02:58:46.354Z,17.75
2023-02-06T03:01:16.125Z,15.45
2023-02-06T03:03:44.570Z,19.92
2023-02-06T03:06:23.165Z,15.65
2023-02-06T03:08:56.253Z,15.23
2023-02-06T03:11:22.775Z,14.93
2023-02-06T03:13:53.893Z,16.38
2023-02-06T03:16:26.750Z,13.63
2023-02-06T03:19:00.855Z,10.45
2023-02-06T03:21:27.358Z,14.15
2023-02-06T03:23:55.902Z,12.02
2023-02-06T03:26:23.450Z,12.82
2023-02-06T03:28:52.926Z,13.48
2023-02-06T03:31:23.477Z,20.60
2023-02-06T03:33:52.999Z,12.27
2023-02-06T03:36:20.110Z,14.43
2023-02-06T03:38:47.753Z,10.90
2023-02-06T03:41:14.824Z,14.38
2023-02-06T03:43:42.786Z,12.05
2023-02-06T03:46:12.453Z,15.40
2023-02-06T03:48:50.082Z,21.27
2023-02-06T03:51:19.375Z,14.93
2023-02-06T03:53:46.401Z,13.55
2023-02-06T03:56:15.901Z,10.38
2023-02-06T03:58:42.484Z,13.68
2023-02-06T04:01:08.997Z,20.75
2023-02-06T04:03:35.508Z,19.20
2023-02-06T04:06:02.009Z,19.50
2023-02-06T04:08:28.469Z,11.57
2023-02-06T04:10:54.939Z,12.55
2023-02-06T04:13:21.414Z,14.98
2023-02-06T04:15:47.901Z,12.75
2023-02-06T04:18:14.379Z,12.95
2023-02-06T04:20:41.091Z,12.73
2023-02-06T04:23:08.229Z,14.75
2023-02-06T04:25:34.983Z,21.55
2023-02-06T04:28:01.749Z,15.57
2023-02-06T04:30:28.277Z,14.65
2023-02-06T04:32:54.800Z,12.43
2023-02-06T04:35:21.390Z,14.80
2023-02-06T04:37:47.857Z,11.05
2023-02-06T04:40:14.354Z,18.58
2023-02-06T04:42:40.942Z,16.75
2023-02-06T04:45:07.911Z,20.05
2023-02-06T04:47:34.364Z,17.00
2023-02-06T04:50:00.929Z,19.38
2023-02-06T04:52:27.397Z,21.55
2023-02-06T04:54:53.871Z,22.63
2023-02-06T04:57:20.732Z,17.17
2023-02-06T04:59:47.201Z,20.10
2023-02-06T05:02:13.704Z,15.60
2023-02-06T05:04:40.197Z,13.70
2023-02-06T05:07:06.684Z,13.35
2023-02-06T05:09:33.138Z,16.83
2023-02-06T05:11:59.640Z,14.75
2023-02-06T05:14:26.158Z,12.73
2023-02-06T05:16:52.623Z,15.35
2023-02-06T05:19:19.169Z,14.15
2023-02-06T05:21:45.659Z,15.63
2023-02-06T05:24:12.161Z,11.25
2023-02-06T05:26:38.950Z,15.35
2023-02-06T05:29:05.480Z,18.60
2023-02-06T05:31:32.067Z,18.60
2023-02-06T05:33:58.686Z,14.52
2023-02-06T05:36:25.247Z,13.43
2023-02-06T05:38:51.772Z,12.85
2023-02-06T05:41:18.482Z,17.10
2023-02-06T05:43:45.030Z,15.23
2023-02-06T05:46:13.035Z,15.63
2023-02-06T05:48:39.773Z,17.88
2023-02-06T05:51:06.452Z,12.20
2023-02-06T05:53:32.994Z,18.42
2023-02-06T05:55:59.531Z,16.35
2023-02-06T05:58:26.089Z,11.48
2023-02-06T06:00:52.566Z,11.93
2023-02-06T06:03:19.215Z,14.23
2023-02-06T06:05:45.924Z,9.95
2023-02-06T06:08:12.393Z,12.32
2023-02-06T06:10:38.926Z,9.77
2023-02-06T06:13:05.398Z,16.17
2023-02-06T06:15:31.975Z,13.52
2023-02-06T06:17:58.528Z,18.42
2023-02-06T06:20:25.021Z,18.05
2023-02-06T06:22:51.728Z,18.10
2023-02-06T06:25:19.058Z,15.88
2023-02-06T06:27:45.693Z,15.88
2023-02-06T06:30:12.568Z,13.55
2023-02-06T06:32:39.202Z,15.43
2023-02-06T06:35:06.180Z,13.38
2023-02-06T06:37:32.699Z,13.75
2023-02-06T06:39:59.227Z,12.93
2023-02-06T06:42:25.761Z,11.45
2023-02-06T06:44:52.226Z,12.80
2023-02-06T06:47:18.737Z,14.02
2023-02-06T06:49:45.233Z,15.82
2023-02-06T06:52:24.122Z,14.30
2023-02-06T06:54:52.467Z,12.25
2023-02-06T06:57:19.197Z,15.52
2023-02-06T06:59:45.669Z,10.82
2023-02-06T07:02:12.411Z,11.98
2023-02-06T07:04:38.908Z,11.50
2023-02-06T07:07:05.443Z,17.73
2023-02-06T07:09:31.994Z,28.40
2023-02-06T07:11:58.481Z,20.10
2023-02-06T07:14:25.054Z,13.13
2023-02-06T07:16:51.609Z,12.68
2023-02-06T07:19:18.056Z,17.38
2023-02-06T07:21:44.536Z,20.88
2023-02-06T07:24:11.028Z,24.38
2023-02-06T07:26:37.533Z,24.63
2023-02-06T07:29:04.097Z,21.70
2023-02-06T07:31:30.896Z,18.42
2023-02-06T07:33:57.388Z,13.63
2023-02-06T07:36:23.865Z,18.35
2023-02-06T07:38:50.469Z,14.00
2023-02-06T07:41:17.906Z,13.80
2023-02-06T07:43:44.514Z,13.23
2023-02-06T07:46:11.147Z,13.45
2023-02-06T07:48:37.724Z,14.25
2023-02-06T07:51:05.767Z,15.77
2023-02-06T07:53:32.295Z,14.23
2023-02-06T07:55:58.757Z,17.20
2023-02-06T07:58:25.650Z,11.57
2023-02-06T08:00:52.301Z,15.95
2023-02-06T08:03:20.811Z,15.95
2023-02-06T08:05:47.297Z,11.68
2023-02-06T08:08:13.879Z,14.13
2023-02-06T08:10:40.638Z,11.07
2023-02-06T08:13:07.791Z,16.90
2023-02-06T08:15:34.678Z,16.90
2023-02-06T08:18:01.403Z,11.73
2023-02-06T08:20:27.881Z,15.10
2023-02-06T08:22:54.575Z,11.63
2023-02-06T08:25:21.072Z,16.13
2023-02-06T08:27:47.612Z,17.33
2023-02-06T08:30:14.297Z,11.15
2023-02-06T08:32:40.793Z,14.00
2023-02-06T08:35:07.395Z,14.75
2023-02-06T08:37:33.900Z,10.18
2023-02-06T08:40:00.377Z,15.32
2023-02-06T08:42:26.846Z,16.90
2023-02-06T08:44:53.947Z,15.38
2023-02-06T08:47:20.421Z,13.93
2023-02-06T08:49:49.962Z,15.48
2023-02-06T08:52:16.892Z,16.30
2023-02-06T08:54:43.367Z,15.55
2023-02-06T08:57:12.470Z,17.05
2023-02-06T08:59:39.047Z,17.80
2023-02-06T09:02:08.274Z,15.93
2023-02-06T09:04:37.570Z,15.02
2023-02-06T09:07:04.071Z,25.20
2023-02-06T09:09:30.565Z,16.02
2023-02-06T09:12:02.106Z,13.18
2023-02-06T09:14:29.424Z,14.77
2023-02-06T09:16:58.042Z,18.88
2023-02-06T09:19:25.179Z,14.70
2023-02-06T09:21:51.754Z,18.95
2023-02-06T09:24:18.363Z,14.13
2023-02-06T09:26:59.001Z,16.55
2023-02-06T09:29:28.777Z,15.70
2023-02-06T09:31:57.163Z,16.17
2023-02-06T09:34:25.632Z,14.32
2023-02-06T09:36:54.681Z,11.52
2023-02-06T09:39:21.326Z,14.48
2023-02-06T09:41:52.517Z,16.15
2023-02-06T09:44:53.522Z,13.00
2023-02-06T09:47:26.176Z,14.00
2023-02-06T09:49:58.827Z,12.30
2023-02-06T09:52:52.111Z,15.68
2023-02-06T09:55:38.774Z,12.60
2023-02-06T09:58:33.909Z,10.65
2023-02-06T10:01:35.870Z,18.25
2023-02-06T10:04:20.430Z,16.15
2023-02-06T10:06:52.923Z,12.73
2023-02-06T10:09:21.597Z,12.73
2023-02-06T10:11:57.874Z,16.67
2023-02-06T10:14:44.815Z,12.88
2023-02-06T10:17:24.866Z,10.75
2023-02-06T10:19:56.615Z,18.17
2023-02-06T10:22:30.279Z,13.45
2023-02-06T10:24:56.642Z,11.90
2023-02-06T10:27:23.144Z,18.13
2023-02-06T10:29:49.667Z,11.15
2023-02-06T10:32:19.478Z,15.80
2023-02-06T10:35:01.313Z,15.43
2023-02-06T10:37:36.972Z,13.43
2023-02-06T10:40:15.277Z,12.90
2023-02-06T10:42:56.391Z,14.63
2023-02-06T10:45:53.936Z,13.48
2023-02-06T10:49:17.887Z,14.23
2023-02-06T10:54:16.366Z,14.13
2023-02-06T10:56:44.450Z,13.43
2023-02-06T10:59:13.760Z,11.90
2023-02-06T11:01:40.326Z,15.05
2023-02-06T11:04:29.603Z,13.32
2023-02-06T11:07:00.407Z,14.65
2023-02-06T11:09:26.889Z,13.85
2023-02-06T11:11:54.648Z,13.77
2023-02-06T11:14:25.249Z,20.55
2023-02-06T11:16:51.880Z,15.65
2023-02-06T11:19:30.329Z,9.93
2023-02-06T11:22:08.382Z,8.77
2023-02-06T11:24:37.338Z,7.72
2023-02-06T11:27:23.994Z,7.32
2023-02-06T11:29:52.152Z,8.77
2023-02-06T11:32:55.734Z,10.18
2023-02-06T11:35:38.611Z,7.55
2023-02-06T11:38:15.644Z,10.25
2023-02-06T11:40:42.745Z,11.45
2023-02-06T11:43:20.257Z,7.90
2023-02-06T11:45:47.630Z,6.28
2023-02-06T11:48:34.637Z,12.35
2023-02-06T11:51:01.263Z,14.15
2023-02-06T11:53:27.768Z,9.80
2023-02-06T11:56:03.504Z,7.20
2023-02-06T11:58:30.092Z,7.60
2023-02-06T12:01:01.981Z,6.20
2023-02-06T12:03:37.071Z,6.60
2023-02-06T12:06:11.310Z,7.00
2023-02-06T12:08:50.704Z,8.05
2023-02-06T12:11:24.270Z,7.47
2023-02-06T12:13:54.254Z,11.18
2023-02-06T12:16:20.743Z,14.30
2023-02-06T12:18:49.691Z,4.65
2023-02-06T12:21:24.561Z,9.93
2023-02-06T12:24:00.185Z,6.82
2023-02-06T12:26:29.579Z,5.85
2023-02-06T12:29:09.900Z,6.30
2023-02-06T12:31:43.087Z,4.60
2023-02-06T12:34:23.349Z,7.57
2023-02-06T12:37:00.337Z,10.15
2023-02-06T12:39:31.268Z,6.63
2023-02-06T12:42:03.924Z,6.97
2023-02-06T12:44:49.828Z,6.65
2023-02-06T12:47:52.073Z,7.97
2023-02-06T12:50:21.252Z,7.25
2023-02-06T12:53:07.600Z,7.03
2023-02-06T12:55:39.803Z,11.10
2023-02-06T12:58:21.783Z,11.38
2023-02-06T13:01:03.038Z,9.50
2023-02-06T13:03:34.785Z,8.23
2023-02-06T13:06:10.898Z,9.85
2023-02-06T13:08:48.637Z,12.88
2023-02-06T13:11:31.800Z,8.30
2023-02-06T13:14:26.655Z,7.32
2023-02-06T13:17:07.842Z,11.75
2023-02-06T13:19:37.248Z,8.98
2023-02-06T13:22:09.734Z,10.70
2023-02-06T13:24:37.184Z,18.50
2023-02-06T13:27:06.591Z,10.27
2023-02-06T13:29:53.799Z,14.75
2023-02-06T13:32:21.622Z,13.55
2023-02-06T13:34:50.811Z,15.27
2023-02-06T13:37:40.208Z,12.70
2023-02-06T13:40:25.791Z,14.27
2023-02-06T13:43:07.422Z,11.43
2023-02-06T13:45:50.248Z,13.68
2023-02-06T13:48:38.748Z,13.90
2023-02-06T13:51:20.155Z,14.63
2023-02-06T13:54:09.550Z,11.65
2023-02-06T13:57:18.162Z,12.60
2023-02-06T13:59:53.877Z,9.18
2023-02-06T14:02:48.645Z,13.50
2023-02-06T14:05:55.706Z,10.18
2023-02-06T14:08:45.839Z,9.93
2023-02-06T14:11:40.012Z,12.55
2023-02-06T14:14:21.732Z,16.48
2023-02-06T14:17:03.356Z,9.23
2023-02-06T14:19:35.564Z,11.40
2023-02-06T14:22:07.870Z,18.65
2023-02-06T14:24:34.234Z,11.15
2023-02-06T14:27:01.019Z,17.75
2023-02-06T14:29:37.227Z,19.88
2023-02-06T14:32:39.272Z,11.75
2023-02-06T14:35:34.304Z,14.60
2023-02-06T14:38:08.536Z,21.98
2023-02-06T14:40:39.052Z,14.20
2023-02-06T14:43:06.242Z,11.05
2023-02-06T14:45:41.731Z,15.15
2023-02-06T14:48:18.139Z,13.98
2023-02-06T14:50:48.270Z,13.20
2023-02-06T14:53:26.341Z,20.20
2023-02-06T14:55:52.928Z,22.02
2023-02-06T14:58:29.731Z,20.15
2023-02-06T15:00:57.690Z,21.23
2023-02-06T15:03:25.583Z,17.92
2023-02-06T15:06:08.284Z,19.60
2023-02-06T15:08:34.770Z,18.70
2023-02-06T15:11:03.369Z,15.13
2023-02-06T15:13:34.982Z,18.65
2023-02-06T15:16:06.286Z,15.88
2023-02-06T15:18:36.058Z,16.92
2023-02-06T15:21:07.421Z,13.15
2023-02-06T15:23:49.988Z,14.43
2023-02-06T15:27:10.392Z,15.70
2023-02-06T15:29:37.094Z,14.75
2023-02-06T15:32:05.666Z,16.73
2023-02-06T15:34:32.208Z,12.23
2023-02-06T15:36:58.737Z,16.90
2023-02-06T15:39:25.373Z,12.70
2023-02-06T15:41:52.266Z,15.45
2023-02-06T15:44:21.505Z,15.77
2023-02-06T15:46:49.360Z,20.33
2023-02-06T15:49:40.104Z,12.98
2023-02-06T15:52:06.732Z,20.42
2023-02-06T15:54:34.006Z,13.93
2023-02-06T15:57:38.633Z,18.35
2023-02-06T16:00:09.504Z,14.60
2023-02-06T16:02:37.012Z,13.00
2023-02-06T16:05:03.930Z,10.90
2023-02-06T16:07:32.728Z,12.38
2023-02-06T16:10:08.465Z,16.92
2023-02-06T16:12:35.830Z,16.67
2023-02-06T16:15:04.903Z,16.40
2023-02-06T16:17:33.714Z,14.80
2023-02-06T16:20:04.814Z,16.52
2023-02-06T16:22:33.127Z,14.23
2023-02-06T16:25:14.032Z,21.05
2023-02-06T16:27:45.580Z,19.45
2023-02-06T16:30:28.155Z,21.75
2023-02-06T16:32:55.744Z,19.55
2023-02-06T16:35:23.067Z,19.55
2023-02-06T16:37:49.728Z,21.20
2023-02-06T16:40:17.261Z,19.27
2023-02-06T16:42:47.304Z,19.02
2023-02-06T16:45:18.905Z,23.75
2023-02-06T16:47:45.648Z,19.90
2023-02-06T16:50:12.150Z,24.23
2023-02-06T16:52:40.478Z,19.50
2023-02-06T16:55:07.135Z,23.95
2023-02-06T16:57:39.035Z,20.45
2023-02-06T17:00:16.658Z,21.53
2023-02-06T17:02:43.150Z,30.25
2023-02-06T17:05:09.714Z,23.27
2023-02-06T17:07:36.265Z,23.75
2023-02-06T17:10:03.041Z,21.05
2023-02-06T17:12:30.105Z,23.25
2023-02-06T17:14:57.003Z,23.27
2023-02-06T17:17:23.540Z,24.98
2023-02-06T17:19:50.533Z,22.30
2023-02-06T17:22:17.073Z,19.95
2023-02-06T17:24:43.819Z,25.25
2023-02-06T17:27:15.769Z,20.45
2023-02-06T17:29:42.302Z,22.43
2023-02-06T17:32:09.278Z,20.73
2023-02-06T17:34:36.023Z,28.20
2023-02-06T17:37:02.582Z,29.20
2023-02-06T17:39:29.157Z,25.77
2023-02-06T17:41:55.673Z,22.38
2023-02-06T17:44:22.192Z,22.48
2023-02-06T17:46:49.117Z,28.13
2023-02-06T17:49:15.967Z,23.17
2023-02-06T17:51:42.862Z,21.38
2023-02-06T17:54:09.576Z,23.63
2023-02-06T17:56:36.265Z,23.42
2023-02-06T17:59:02.837Z,22.15
2023-02-06T18:01:29.516Z,21.10
2023-02-06T18:03:56.230Z,21.02
2023-02-06T18:06:22.866Z,23.90
2023-02-06T18:08:49.369Z,29.52
2023-02-06T18:11:18.085Z,29.23
2023-02-06T18:13:45.711Z,26.60
2023-02-06T18:16:24.635Z,26.95
2023-02-06T18:18:51.361Z,25.98
2023-02-06T18:21:21.339Z,24.98
2023-02-06T18:23:48.209Z,30.50
2023-02-06T18:26:14.760Z,33.45
2023-02-06T18:28:41.306Z,31.52
2023-02-06T18:31:33.314Z,29.00
2023-02-06T18:33:59.941Z,33.50
2023-02-06T18:36:26.462Z,30.88
2023-02-06T18:38:53.290Z,30.02
2023-02-06T18:41:38.831Z,26.42
2023-02-06T18:44:06.696Z,28.25
2023-02-06T18:46:33.505Z,26.17
2023-02-06T18:49:00.141Z,34.03
2023-02-06T18:51:26.694Z,33.10
2023-02-06T18:53:53.339Z,33.15
2023-02-06T18:56:19.918Z,41.65
2023-02-06T18:58:46.447Z,35.55
2023-02-06T19:01:14.683Z,26.02
2023-02-06T19:03:41.335Z,26.65
2023-02-06T19:06:15.322Z,33.15
2023-02-06T19:08:44.585Z,35.08
2023-02-06T19:11:12.204Z,37.90
2023-02-06T19:13:40.535Z,41.75
2023-02-06T19:16:09.320Z,36.03
2023-02-06T19:18:39.541Z,36.33
2023-02-06T19:21:11.007Z,37.17
2023-02-06T19:23:38.273Z,32.67
2023-02-06T19:26:08.588Z,34.92
2023-02-06T19:28:36.694Z,29.80
2023-02-06T19:31:03.222Z,22.70
2023-02-06T19:33:30.185Z,25.33
2023-02-06T19:35:56.717Z,17.67
2023-02-06T19:38:23.408Z,32.00
2023-02-06T19:40:49.930Z,30.48
2023-02-06T19:43:16.512Z,24.80
2023-02-06T19:45:43.061Z,19.92
2023-02-06T19:48:12.951Z,21.35
2023-02-06T19:50:42.905Z,22.30
2023-02-06T19:53:09.544Z,22.40
2023-02-06T19:55:36.414Z,21.40
2023-02-06T19:58:03.006Z,27.77
2023-02-06T20:00:29.597Z,26.63
2023-02-06T20:02:56.095Z,17.52
2023-02-06T20:05:27.099Z,22.83
2023-02-06T20:07:53.974Z,26.73
2023-02-06T20:10:23.336Z,24.27
2023-02-06T20:12:50.847Z,20.52
2023-02-06T20:15:17.378Z,26.88
2023-02-06T20:17:43.883Z,33.28
2023-02-06T20:20:11.104Z,33.00
2023-02-06T20:22:38.443Z,24.63
2023-02-06T20:25:05.193Z,28.17
2023-02-06T20:27:31.737Z,25.88
2023-02-06T20:29:58.245Z,22.00
2023-02-06T20:32:24.765Z,26.10
2023-02-06T20:34:51.353Z,31.08
2023-02-06T20:37:17.889Z,29.92
2023-02-06T20:39:44.490Z,25.55
2023-02-06T20:42:11.088Z,25.35
2023-02-06T20:44:37.562Z,29.67
2023-02-06T20:47:04.109Z,35.50
2023-02-06T20:49:31.359Z,36.00
2023-02-06T20:51:58.029Z,32.20
2023-02-06T20:54:24.974Z,28.52
2023-02-06T20:56:51.975Z,31.00
2023-02-06T20:59:19.133Z,32.90
2023-02-06T21:01:45.751Z,28.10
2023-02-06T21:04:13.176Z,21.42
2023-02-06T21:06:39.745Z,24.25
2023-02-06T21:09:06.973Z,28.98
2023-02-06T21:11:36.095Z,26.27
2023-02-06T21:14:03.438Z,34.13
2023-02-06T21:16:30.334Z,35.83
2023-02-06T21:18:57.421Z,32.20
2023-02-06T21:21:25.452Z,45.10
2023-02-06T21:23:52.314Z,45.70
2023-02-06T21:26:18.883Z,36.05
2023-02-06T21:28:48.595Z,38.35
2023-02-06T21:31:20.172Z,37.25
2023-02-06T21:33:46.994Z,36.90
2023-02-06T21:36:13.546Z,36.70
2023-02-06T21:38:40.238Z,35.65
2023-02-06T21:41:11.396Z,32.45
2023-02-06T21:43:37.915Z,36.15
2023-02-06T21:46:04.972Z,36.08
2023-02-06T21:48:31.874Z,32.60
2023-02-06T21:50:58.421Z,31.65
2023-02-06T21:53:24.917Z,34.85
2023-02-06T21:55:51.455Z,29.85
2023-02-06T21:58:18.046Z,32.58
2023-02-06T22:00:45.772Z,32.25
2023-02-06T22:03:12.674Z,26.42
2023-02-06T22:05:39.340Z,32.15
2023-02-06T22:08:05.974Z,30.15
2023-02-06T22:10:34.310Z,28.80
2023-02-06T22:13:00.787Z,22.77
2023-02-06T22:15:27.290Z,31.95
2023-02-06T22:17:53.747Z,31.92
2023-02-06T22:20:20.234Z,41.72
2023-02-06T22:22:46.920Z,27.13
2023-02-06T22:25:13.476Z,33.15
2023-02-06T22:27:40.050Z,31.67
2023-02-06T22:30:07.484Z,29.17
2023-02-06T22:32:40.147Z,30.35
2023-02-06T22:35:06.827Z,23.05
2023-02-06T22:37:33.621Z,25.30
2023-02-06T22:40:00.133Z,34.15
2023-02-06T22:42:26.624Z,34.55
2023-02-06T22:44:53.151Z,30.83
2023-02-06T22:47:19.668Z,36.72
2023-02-06T22:49:46.188Z,31.83
2023-02-06T22:52:31.322Z,26.20
2023-02-06T22:54:57.812Z,25.85
2023-02-06T22:57:24.299Z,28.50
2023-02-06T22:59:50.811Z,27.33
2023-02-06T23:02:17.353Z,28.80
2023-02-06T23:04:43.848Z,31.38
2023-02-06T23:07:10.519Z,28.65
2023-02-06T23:09:37.799Z,27.70
2023-02-06T23:12:04.726Z,37.00
2023-02-06T23:14:31.988Z,24.20
2023-02-06T23:17:01.665Z,28.25
2023-02-06T23:19:28.348Z,30.63
2023-02-06T23:21:54.980Z,25.63
2023-02-06T23:24:21.520Z,22.30
2023-02-06T23:26:49.668Z,30.88
2023-02-06T23:29:17.733Z,29.23
2023-02-06T23:31:45.569Z,24.30
2023-02-06T23:34:12.421Z,25.02
2023-02-06T23:36:39.024Z,25.40
2023-02-06T23:39:05.820Z,26.23
2023-02-06T23:41:32.530Z,21.63
2023-02-06T23:44:01.142Z,20.70
2023-02-06T23:46:28.698Z,19.05
2023-02-06T23:48:55.228Z,22.67
2023-02-06T23:51:22.021Z,25.83
2023-02-06T23:53:48.732Z,28.13
2023-02-06T23:56:17.634Z,22.85
2023-02-06T23:58:44.262Z,30.70
